Time;durP1;ratioP1;P1;durP2;ratioP2;P2;SDS_P1;SDS_P2;PMS_P1;PMS_P2;Temp;Humidity;BMP_temperature;BMP_pressure;BME280_temperature;BME280_humidity;BME280_pressure;Samples;Min_cycle;Max_cycle;Signal;HPM_P1;HPM_P2
2024/04/14 00:01:50;;;;;;;15.00;6.45;;;;;;;;;;10905354;26;20416;-69
2024/04/14 00:06:44;;;;;;;11.65;6.75;;;;;;;;;;10876737;26;20021;-70
2024/04/14 00:11:39;;;;;;;8.23;6.05;;;;;;;;;;10875666;26;20561;-66
2024/04/14 00:16:33;;;;;;;7.85;6.13;;;;;;;;;;10862064;26;20011;-66
2024/04/14 00:21:27;;;;;;;7.28;6.68;;;;;;;;;;10854215;26;20003;-65
2024/04/14 00:26:22;;;;;;;6.88;5.60;;;;;;;;;;10877793;26;20003;-66
2024/04/14 00:31:16;;;;;;;8.40;5.80;;;;;;;;;;10855263;26;20011;-66
2024/04/14 00:36:11;;;;;;;7.10;5.75;;;;;;;;;;10853380;26;20057;-66
2024/04/14 00:41:05;;;;;;;7.43;5.85;;;;;;;;;;10860306;26;20014;-66
2024/04/14 00:46:00;;;;;;;5.82;4.70;;;;;;;;;;10869779;26;20908;-66
2024/04/14 00:50:53;;;;;;;10.55;5.88;;;;;;;;;;10878123;26;20003;-66
2024/04/14 00:55:47;;;;;;;7.97;5.43;;;;;;;;;;10857899;26;20014;-66
2024/04/14 01:00:41;;;;;;;8.80;5.65;;;;;;;;;;10859488;26;20065;-66
2024/04/14 01:05:35;;;;;;;7.97;6.15;;;;;;;;;;10847993;26;20011;-66
2024/04/14 01:10:29;;;;;;;7.63;5.35;;;;;;;;;;10870510;26;20008;-66
2024/04/14 01:15:23;;;;;;;6.18;5.00;;;;;;;;;;10862271;26;20499;-66
2024/04/14 01:20:17;;;;;;;7.07;4.82;;;;;;;;;;10848591;26;20026;-66
2024/04/14 01:25:11;;;;;;;5.35;4.35;;;;;;;;;;10883215;26;20003;-66
2024/04/14 01:30:07;;;;;;;5.32;4.63;;;;;;;;;;10866126;26;19999;-66
2024/04/14 01:35:01;;;;;;;4.65;4.25;;;;;;;;;;10883653;26;20035;-66
2024/04/14 01:39:56;;;;;;;10.55;4.90;;;;;;;;;;10866565;26;20014;-66
2024/04/14 01:44:49;;;;;;;7.55;4.97;;;;;;;;;;10853581;26;20365;-66
2024/04/14 01:49:44;;;;;;;8.20;5.53;;;;;;;;;;10879902;26;20002;-66
2024/04/14 01:54:38;;;;;;;6.43;5.75;;;;;;;;;;10867895;26;20327;-65
2024/04/14 01:59:32;;;;;;;5.50;4.30;;;;;;;;;;10875684;26;20014;-66
2024/04/14 02:04:26;;;;;;;14.32;4.78;;;;;;;;;;10851869;26;20002;-66
2024/04/14 02:09:22;;;;;;;6.80;4.88;;;;;;;;;;10875294;26;20000;-66
2024/04/14 02:14:15;;;;;;;10.27;5.18;;;;;;;;;;10867918;26;20401;-66
2024/04/14 02:19:10;;;;;;;6.70;5.00;;;;;;;;;;10854116;26;20003;-66
2024/04/14 02:24:04;;;;;;;6.03;4.45;;;;;;;;;;10880180;26;20016;-64
2024/04/14 02:28:59;;;;;;;16.60;6.68;;;;;;;;;;10858530;26;20072;-66
2024/04/14 02:33:53;;;;;;;8.48;4.90;;;;;;;;;;10882636;26;19999;-66
2024/04/14 02:38:48;;;;;;;8.10;5.43;;;;;;;;;;10877108;26;20014;-66
2024/04/14 02:43:44;;;;;;;9.73;6.00;;;;;;;;;;10876805;26;20003;-66
2024/04/14 02:48:39;;;;;;;7.65;5.00;;;;;;;;;;10867044;26;20000;-66
2024/04/14 02:53:33;;;;;;;8.00;5.60;;;;;;;;;;10878805;26;20010;-66
2024/04/14 02:58:27;;;;;;;5.13;4.60;;;;;;;;;;10881687;26;20408;-66
2024/04/14 03:03:21;;;;;;;6.95;4.95;;;;;;;;;;10865437;26;20455;-66
2024/04/14 03:08:15;;;;;;;6.97;5.10;;;;;;;;;;10869756;26;20010;-66
2024/04/14 03:13:09;;;;;;;9.25;4.57;;;;;;;;;;10879176;26;20335;-66
2024/04/14 03:18:04;;;;;;;5.15;4.47;;;;;;;;;;10846867;26;20423;-66
2024/04/14 03:22:58;;;;;;;5.95;4.35;;;;;;;;;;10860367;26;20335;-66
2024/04/14 03:27:53;;;;;;;8.10;5.07;;;;;;;;;;10881870;26;20332;-66
2024/04/14 03:32:47;;;;;;;6.07;4.13;;;;;;;;;;10863889;26;20003;-66
2024/04/14 03:37:42;;;;;;;10.32;4.00;;;;;;;;;;10852677;26;20019;-65
2024/04/14 03:42:37;;;;;;;5.38;3.88;;;;;;;;;;10878544;26;20003;-65
2024/04/14 03:47:30;;;;;;;4.07;3.60;;;;;;;;;;10866043;26;20141;-65
2024/04/14 03:52:24;;;;;;;6.00;4.05;;;;;;;;;;10871159;26;20011;-65
2024/04/14 03:57:19;;;;;;;6.03;3.97;;;;;;;;;;10866986;26;20047;-65
2024/04/14 04:02:12;;;;;;;6.25;4.10;;;;;;;;;;10881658;26;20010;-65
2024/04/14 04:07:07;;;;;;;6.53;4.22;;;;;;;;;;10871610;26;20026;-65
2024/04/14 04:12:01;;;;;;;7.40;4.30;;;;;;;;;;10871282;26;20324;-65
2024/04/14 04:16:55;;;;;;;10.93;4.60;;;;;;;;;;10863668;26;20014;-66
2024/04/14 04:21:48;;;;;;;8.32;4.00;;;;;;;;;;10863738;26;20010;-66
2024/04/14 04:26:42;;;;;;;6.90;4.50;;;;;;;;;;10866169;26;20018;-66
2024/04/14 04:31:37;;;;;;;5.28;4.47;;;;;;;;;;10864628;26;20016;-66
2024/04/14 04:36:32;;;;;;;6.43;4.32;;;;;;;;;;10863260;26;20002;-66
2024/04/14 04:41:26;;;;;;;10.02;5.00;;;;;;;;;;10870733;26;20007;-66
2024/04/14 04:46:20;;;;;;;9.68;5.00;;;;;;;;;;10858943;26;20010;-66
2024/04/14 04:51:16;;;;;;;10.32;4.78;;;;;;;;;;10847077;26;20004;-65
2024/04/14 04:56:10;;;;;;;7.57;4.32;;;;;;;;;;10869323;26;20010;-65
2024/04/14 05:01:05;;;;;;;7.22;5.82;;;;;;;;;;10868530;26;20144;-66
2024/04/14 05:06:01;;;;;;;7.03;5.32;;;;;;;;;;10867660;26;20011;-66
2024/04/14 05:10:56;;;;;;;6.43;4.30;;;;;;;;;;10867596;26;20011;-66
2024/04/14 05:15:50;;;;;;;5.40;4.90;;;;;;;;;;10869330;26;20014;-66
2024/04/14 05:20:45;;;;;;;7.88;6.35;;;;;;;;;;10875583;26;20321;-67
2024/04/14 05:25:42;;;;;;;5.35;4.47;;;;;;;;;;10868480;26;20410;-66
2024/04/14 05:30:39;;;;;;;8.13;5.53;;;;;;;;;;10869326;26;19999;-65
2024/04/14 05:35:35;;;;;;;11.25;4.53;;;;;;;;;;10862607;26;20023;-64
2024/04/14 05:40:30;;;;;;;11.50;4.88;;;;;;;;;;10872166;26;20010;-65
2024/04/14 05:45:24;;;;;;;5.90;4.50;;;;;;;;;;10851071;26;20083;-66
2024/04/14 05:50:19;;;;;;;10.65;4.82;;;;;;;;;;10848249;26;20080;-66
2024/04/14 05:55:13;;;;;;;13.13;4.35;;;;;;;;;;10855792;26;19999;-66
2024/04/14 06:00:09;;;;;;;9.32;4.15;;;;;;;;;;10857085;26;20002;-65
2024/04/14 06:05:08;;;;;;;5.43;4.10;;;;;;;;;;10876587;26;20523;-65
2024/04/14 06:10:03;;;;;;;8.13;4.18;;;;;;;;;;10866235;26;20017;-65
2024/04/14 06:14:59;;;;;;;5.43;4.85;;;;;;;;;;10877439;26;20003;-66
2024/04/14 06:19:54;;;;;;;10.45;4.82;;;;;;;;;;10900317;26;20002;-65
2024/04/14 06:24:48;;;;;;;5.90;4.10;;;;;;;;;;10910209;26;20003;-65
2024/04/14 06:29:42;;;;;;;8.43;4.60;;;;;;;;;;10909773;26;20003;-65
2024/04/14 06:34:37;;;;;;;8.98;4.15;;;;;;;;;;10908457;26;20454;-65
2024/04/14 06:39:31;;;;;;;5.43;4.75;;;;;;;;;;10909394;26;20003;-65
2024/04/14 06:44:25;;;;;;;7.63;4.57;;;;;;;;;;10908957;26;20010;-65
2024/04/14 06:49:20;;;;;;;5.18;4.20;;;;;;;;;;10905641;26;20041;-65
2024/04/14 06:54:15;;;;;;;5.10;4.28;;;;;;;;;;10880989;26;20003;-65
2024/04/14 06:59:09;;;;;;;6.57;4.47;;;;;;;;;;10907840;26;20016;-66
2024/04/14 07:04:05;;;;;;;9.70;5.03;;;;;;;;;;10907944;26;20413;-67
2024/04/14 07:08:59;;;;;;;8.02;4.28;;;;;;;;;;10903932;26;20447;-66
2024/04/14 07:13:53;;;;;;;9.20;4.25;;;;;;;;;;10918022;26;20014;-66
2024/04/14 07:18:47;;;;;;;8.23;4.43;;;;;;;;;;10904706;26;20653;-66
2024/04/14 07:23:42;;;;;;;7.85;4.35;;;;;;;;;;10903075;26;20309;-66
2024/04/14 07:28:37;;;;;;;5.32;4.10;;;;;;;;;;10866683;26;20012;-65
2024/04/14 07:33:32;;;;;;;9.52;5.25;;;;;;;;;;10890098;26;20003;-65
2024/04/14 07:38:26;;;;;;;8.52;4.28;;;;;;;;;;10906914;26;20003;-66
2024/04/14 07:43:21;;;;;;;8.95;4.78;;;;;;;;;;10906582;26;20358;-66
2024/04/14 07:48:15;;;;;;;10.10;5.18;;;;;;;;;;10906354;26;20017;-68
2024/04/14 07:53:10;;;;;;;12.00;5.05;;;;;;;;;;10902602;26;20066;-65
2024/04/14 07:58:04;;;;;;;4.82;4.07;;;;;;;;;;10906516;26;20003;-65
2024/04/14 08:02:59;;;;;;;8.63;4.03;;;;;;;;;;10906143;26;20467;-66
2024/04/14 08:07:54;;;;;;;8.43;4.85;;;;;;;;;;10905573;26;20017;-66
2024/04/14 10:17:48;;;;;;;12.38;5.03;;;;;;;;;;10879820;25;20212;-66
2024/04/14 10:22:43;;;;;;;9.70;5.45;;;;;;;;;;10845123;26;20005;-66
2024/04/14 10:27:36;;;;;;;7.65;5.18;;;;;;;;;;10829055;26;20003;-66
2024/04/14 10:32:30;;;;;;;9.93;5.45;;;;;;;;;;10820442;26;20463;-65
2024/04/14 10:37:28;;;;;;;8.10;6.88;;;;;;;;;;10848041;26;20440;-66
2024/04/14 10:42:23;;;;;;;8.32;6.57;;;;;;;;;;10841255;26;19999;-66
2024/04/14 10:47:19;;;;;;;8.70;5.65;;;;;;;;;;10837612;26;20003;-64
2024/04/14 10:52:18;;;;;;;7.75;5.80;;;;;;;;;;10859406;26;20003;-65
2024/04/14 10:57:16;;;;;;;15.82;5.55;;;;;;;;;;10857413;26;20011;-66
2024/04/14 11:02:12;;;;;;;7.53;4.57;;;;;;;;;;10858071;26;20031;-66
2024/04/14 11:07:06;;;;;;;8.75;5.20;;;;;;;;;;10835141;26;20015;-65
2024/04/14 11:12:03;;;;;;;13.48;4.45;;;;;;;;;;10815045;26;20035;-65
2024/04/14 11:16:57;;;;;;;7.60;5.00;;;;;;;;;;10815088;26;20011;-65
2024/04/14 11:21:50;;;;;;;8.70;6.05;;;;;;;;;;10821484;26;20003;-64
2024/04/14 11:26:45;;;;;;;8.75;5.95;;;;;;;;;;10822366;26;20000;-65
2024/04/14 11:31:39;;;;;;;10.57;6.70;;;;;;;;;;10785146;26;20003;-65
2024/04/14 11:36:34;;;;;;;8.25;6.85;;;;;;;;;;10785714;26;20081;-65
2024/04/14 11:41:28;;;;;;;6.63;5.95;;;;;;;;;;10768077;26;20467;-65
2024/04/14 11:46:22;;;;;;;11.32;6.57;;;;;;;;;;10798810;26;20003;-64
2024/04/14 11:51:17;;;;;;;6.55;5.50;;;;;;;;;;10798996;26;20015;-64
2024/04/14 11:56:12;;;;;;;10.18;4.90;;;;;;;;;;10813236;26;20004;-65
2024/04/14 12:01:06;;;;;;;9.68;4.97;;;;;;;;;;10776971;26;20008;-65
2024/04/14 12:06:01;;;;;;;9.15;5.95;;;;;;;;;;10815296;26;20016;-65
2024/04/14 12:10:56;;;;;;;10.95;5.13;;;;;;;;;;10815341;26;20012;-65
2024/04/14 12:15:52;;;;;;;6.57;5.18;;;;;;;;;;10787095;26;20009;-66
2024/04/14 12:20:46;;;;;;;5.57;4.47;;;;;;;;;;10783790;26;20130;-65
2024/04/14 12:25:42;;;;;;;11.40;5.18;;;;;;;;;;10812966;26;20009;-66
2024/04/14 12:30:36;;;;;;;12.40;6.05;;;;;;;;;;10826219;26;20357;-66
2024/04/14 12:35:43;;;;;;;13.73;5.00;;;;;;;;;;10798279;26;20015;-67
2024/04/14 12:40:37;;;;;;;9.65;4.13;;;;;;;;;;10761582;26;20502;-65
2024/04/14 12:45:32;;;;;;;10.50;6.05;;;;;;;;;;10765361;26;20570;-65
2024/04/14 12:50:26;;;;;;;9.02;4.30;;;;;;;;;;10765974;26;20434;-67
2024/04/14 12:55:32;;;;;;;11.25;5.38;;;;;;;;;;10763052;26;19996;-66
2024/04/14 13:00:27;;;;;;;8.60;4.93;;;;;;;;;;10763070;26;20004;-66
2024/04/14 13:05:21;;;;;;;10.02;4.80;;;;;;;;;;10762720;26;20004;-65
2024/04/14 13:10:16;;;;;;;10.15;5.07;;;;;;;;;;10753507;26;20083;-65
2024/04/14 13:15:12;;;;;;;10.70;5.60;;;;;;;;;;10765630;26;20465;-66
2024/04/14 13:20:08;;;;;;;8.43;5.03;;;;;;;;;;10761984;26;20008;-65
2024/04/14 13:25:03;;;;;;;7.97;4.97;;;;;;;;;;10765527;26;20471;-67
2024/04/14 13:29:58;;;;;;;6.07;4.88;;;;;;;;;;10763090;26;20032;-66
2024/04/14 13:34:53;;;;;;;12.43;5.05;;;;;;;;;;10732620;26;20004;-65
2024/04/14 13:39:47;;;;;;;10.27;5.93;;;;;;;;;;10763128;26;20501;-65
2024/04/14 13:44:45;;;;;;;7.13;3.83;;;;;;;;;;10756918;26;20024;-66
2024/04/14 13:49:39;;;;;;;9.20;4.00;;;;;;;;;;10766646;26;20463;-65
2024/04/14 13:54:34;;;;;;;9.43;3.95;;;;;;;;;;10743534;26;20004;-66
2024/04/14 13:59:28;;;;;;;9.18;3.88;;;;;;;;;;10761895;26;20419;-66
2024/04/14 14:04:22;;;;;;;14.10;5.38;;;;;;;;;;10750803;26;20035;-66
2024/04/14 14:09:17;;;;;;;8.35;4.63;;;;;;;;;;10773401;26;20014;-67
2024/04/14 14:14:13;;;;;;;8.43;4.20;;;;;;;;;;10777484;26;20440;-66
2024/04/14 14:19:06;;;;;;;7.22;4.70;;;;;;;;;;10792126;26;20004;-67
2024/04/14 14:24:01;;;;;;;11.07;4.10;;;;;;;;;;10781107;26;20056;-66
2024/04/14 14:28:54;;;;;;;5.53;3.53;;;;;;;;;;10760551;26;20005;-65
2024/04/14 14:39:02;;;;;;;11.98;3.88;;;;;;;;;;10759396;26;20692;-65
2024/04/14 14:43:56;;;;;;;6.50;4.07;;;;;;;;;;10758927;26;20004;-65
2024/04/14 14:48:52;;;;;;;6.63;3.80;;;;;;;;;;10759508;26;20011;-67
2024/04/14 14:53:50;;;;;;;12.50;5.03;;;;;;;;;;10760095;26;20016;-66
2024/04/14 14:58:44;;;;;;;8.90;4.85;;;;;;;;;;10759874;26;20005;-66
2024/04/14 15:03:37;;;;;;;9.48;4.70;;;;;;;;;;10764674;26;20019;-68
2024/04/14 15:08:32;;;;;;;16.23;4.75;;;;;;;;;;10766507;26;20004;-68
2024/04/14 15:13:26;;;;;;;12.13;4.35;;;;;;;;;;10769440;26;20018;-67
2024/04/14 15:18:23;;;;;;;9.70;4.47;;;;;;;;;;10765761;26;20035;-68
2024/04/14 15:23:18;;;;;;;7.38;4.32;;;;;;;;;;10765966;26;20004;-68
2024/04/14 15:28:11;;;;;;;6.57;4.07;;;;;;;;;;10765605;26;20216;-67
2024/04/14 15:33:17;;;;;;;8.43;4.88;;;;;;;;;;10765603;26;20016;-65
2024/04/14 15:38:11;;;;;;;13.02;5.35;;;;;;;;;;10764615;26;20051;-66
2024/04/14 15:43:06;;;;;;;4.97;3.80;;;;;;;;;;10764164;26;20015;-66
2024/04/14 15:48:01;;;;;;;9.27;3.75;;;;;;;;;;10762529;26;20004;-66
2024/04/14 15:52:55;;;;;;;14.15;4.80;;;;;;;;;;10764401;26;20041;-64
2024/04/14 15:57:50;;;;;;;11.85;4.35;;;;;;;;;;10763133;26;20086;-66
2024/04/14 16:02:47;;;;;;;7.40;5.15;;;;;;;;;;10765426;26;20078;-66
2024/04/14 16:07:41;;;;;;;12.73;5.18;;;;;;;;;;10764771;26;20016;-66
2024/04/14 16:12:35;;;;;;;8.23;5.15;;;;;;;;;;10784607;26;20008;-65
2024/04/14 16:17:29;;;;;;;8.07;5.10;;;;;;;;;;10769673;26;20011;-65
2024/04/14 16:22:23;;;;;;;11.57;4.88;;;;;;;;;;10782633;26;20048;-65
2024/04/14 16:27:18;;;;;;;9.70;5.75;;;;;;;;;;10796303;26;20015;-65
2024/04/14 16:32:12;;;;;;;10.27;4.93;;;;;;;;;;10764280;26;20725;-65
2024/04/14 16:37:08;;;;;;;6.88;4.85;;;;;;;;;;10778786;26;20004;-66
2024/04/14 16:42:04;;;;;;;10.45;5.22;;;;;;;;;;10783217;26;20019;-65
2024/04/14 16:46:59;;;;;;;9.45;5.60;;;;;;;;;;10779611;26;20351;-65
2024/04/14 16:51:53;;;;;;;11.77;4.70;;;;;;;;;;10756218;26;20005;-65
2024/04/14 16:56:47;;;;;;;15.20;4.88;;;;;;;;;;10765475;26;20459;-66
2024/04/14 17:01:42;;;;;;;11.00;5.45;;;;;;;;;;10746063;26;20017;-66
2024/04/14 17:06:36;;;;;;;7.40;4.88;;;;;;;;;;10811194;26;20005;-66
2024/04/14 17:11:29;;;;;;;7.80;4.80;;;;;;;;;;10782424;26;20301;-64
2024/04/14 17:16:23;;;;;;;13.27;6.15;;;;;;;;;;10796607;26;20111;-65
2024/04/14 17:21:17;;;;;;;10.48;5.13;;;;;;;;;;10794317;26;20018;-65
2024/04/14 17:26:11;;;;;;;11.85;5.28;;;;;;;;;;10809067;26;20022;-65
2024/04/14 17:31:06;;;;;;;12.52;6.07;;;;;;;;;;10808804;26;20004;-65
2024/04/14 17:36:00;;;;;;;9.85;4.70;;;;;;;;;;10786636;26;20015;-65
2024/04/14 17:40:54;;;;;;;9.35;5.45;;;;;;;;;;10763644;26;20070;-65
2024/04/14 17:45:50;;;;;;;7.78;5.85;;;;;;;;;;10762301;26;20018;-65
2024/04/14 17:50:43;;;;;;;12.93;5.38;;;;;;;;;;10757655;26;20352;-64
2024/04/14 17:55:37;;;;;;;11.15;5.85;;;;;;;;;;10761857;26;20041;-64
2024/04/14 18:00:32;;;;;;;10.80;4.53;;;;;;;;;;10764150;26;20444;-64
2024/04/14 18:05:26;;;;;;;11.63;4.55;;;;;;;;;;10765004;26;20078;-64
2024/04/14 18:10:22;;;;;;;7.97;4.82;;;;;;;;;;10752379;26;20008;-65
2024/04/14 18:15:16;;;;;;;6.50;4.45;;;;;;;;;;10760901;26;20456;-64
2024/04/14 18:20:11;;;;;;;40.92;6.13;;;;;;;;;;10746191;26;20077;-64
2024/04/14 18:25:06;;;;;;;9.90;5.45;;;;;;;;;;10762236;26;20012;-64
2024/04/14 18:30:01;;;;;;;12.60;4.97;;;;;;;;;;10761497;26;20077;-64
2024/04/14 18:34:56;;;;;;;9.15;5.82;;;;;;;;;;10761197;26;20018;-64
2024/04/14 18:39:50;;;;;;;9.38;5.40;;;;;;;;;;10769393;26;20004;-64
2024/04/14 18:44:44;;;;;;;9.02;5.03;;;;;;;;;;10771703;26;20012;-65
2024/04/14 18:49:39;;;;;;;8.50;4.70;;;;;;;;;;10766060;26;20032;-65
2024/04/14 18:54:34;;;;;;;14.35;4.60;;;;;;;;;;10775328;26;20016;-66
2024/04/14 18:59:28;;;;;;;5.75;4.07;;;;;;;;;;10767936;26;20098;-66
2024/04/14 19:04:22;;;;;;;10.27;4.43;;;;;;;;;;10769102;26;20313;-65
2024/04/14 19:09:16;;;;;;;7.28;4.85;;;;;;;;;;10766681;26;20004;-66
2024/04/14 19:14:11;;;;;;;8.48;4.82;;;;;;;;;;10768711;26;20004;-66
2024/04/14 19:19:06;;;;;;;13.55;5.28;;;;;;;;;;10776162;26;20440;-72
2024/04/14 19:24:01;;;;;;;9.57;5.65;;;;;;;;;;10774749;26;20433;-73
2024/04/14 19:28:55;;;;;;;12.48;5.53;;;;;;;;;;10793187;26;20016;-72
2024/04/14 19:33:48;;;;;;;11.73;4.85;;;;;;;;;;10816868;26;20063;-72
2024/04/14 19:38:42;;;;;;;13.57;7.20;;;;;;;;;;10821554;26;20004;-73
2024/04/14 19:43:35;;;;;;;9.45;6.10;;;;;;;;;;10789097;26;20027;-72
2024/04/14 19:48:28;;;;;;;9.88;6.45;;;;;;;;;;10808693;26;20011;-72
2024/04/14 19:53:24;;;;;;;8.10;5.28;;;;;;;;;;10833449;26;20003;-73
2024/04/14 19:58:18;;;;;;;9.82;6.47;;;;;;;;;;10831314;26;20004;-73
2024/04/14 20:03:12;;;;;;;10.00;5.05;;;;;;;;;;10792903;26;20004;-73
2024/04/14 20:08:06;;;;;;;15.70;5.47;;;;;;;;;;10793738;26;20019;-72
2024/04/14 20:13:00;;;;;;;5.97;4.10;;;;;;;;;;10771630;26;20073;-72
2024/04/14 20:17:55;;;;;;;6.20;4.53;;;;;;;;;;10787668;26;20282;-72
2024/04/14 20:22:50;;;;;;;9.88;4.90;;;;;;;;;;10744330;26;22193;-72
2024/04/14 20:27:43;;;;;;;6.57;3.97;;;;;;;;;;10782070;26;20004;-71
2024/04/14 20:32:38;;;;;;;7.25;4.32;;;;;;;;;;10815003;26;20007;-72
2024/04/14 20:37:32;;;;;;;8.68;3.90;;;;;;;;;;10804221;26;20332;-72
2024/04/14 20:42:27;;;;;;;4.65;3.33;;;;;;;;;;10801727;26;20003;-71
2024/04/14 20:47:22;;;;;;;10.18;4.10;;;;;;;;;;10797973;26;20008;-72
2024/04/14 20:52:18;;;;;;;5.30;3.88;;;;;;;;;;10808324;26;20053;-72
2024/04/14 20:57:12;;;;;;;6.07;3.72;;;;;;;;;;10794304;26;20444;-73
2024/04/14 21:02:07;;;;;;;11.15;3.67;;;;;;;;;;10773412;26;20045;-73
2024/04/14 21:07:04;;;;;;;4.53;4.05;;;;;;;;;;10762532;26;20004;-74
2024/04/14 21:11:58;;;;;;;12.77;4.75;;;;;;;;;;10755055;26;20004;-73
2024/04/14 21:16:53;;;;;;;6.32;3.35;;;;;;;;;;10775313;26;20403;-72
2024/04/14 21:21:48;;;;;;;7.85;3.85;;;;;;;;;;10767746;26;20367;-73
2024/04/14 21:26:42;;;;;;;3.92;3.40;;;;;;;;;;10755933;26;20458;-72
2024/04/14 21:31:36;;;;;;;5.22;3.72;;;;;;;;;;10757533;26;20015;-71
2024/04/14 21:36:31;;;;;;;8.20;3.47;;;;;;;;;;10754182;26;20580;-72
2024/04/14 21:41:26;;;;;;;3.83;3.20;;;;;;;;;;10752596;26;20046;-71
2024/04/14 21:46:20;;;;;;;7.22;3.85;;;;;;;;;;10764645;26;20008;-72
2024/04/14 21:51:14;;;;;;;4.03;3.50;;;;;;;;;;10763224;26;20008;-72
2024/04/14 21:56:08;;;;;;;5.88;3.42;;;;;;;;;;10764275;26;20004;-71
2024/04/14 22:01:14;;;;;;;5.32;3.88;;;;;;;;;;10770189;26;20344;-73
2024/04/14 22:06:09;;;;;;;5.85;3.80;;;;;;;;;;10777671;26;20365;-71
2024/04/14 22:11:05;;;;;;;5.18;4.18;;;;;;;;;;10757457;26;20001;-72
2024/04/14 22:15:59;;;;;;;6.80;3.70;;;;;;;;;;10745332;26;20008;-72
2024/04/14 22:20:53;;;;;;;4.60;3.88;;;;;;;;;;10761205;26;20073;-71
2024/04/14 22:25:47;;;;;;;7.78;3.53;;;;;;;;;;10767102;26;20008;-72
2024/04/14 22:30:41;;;;;;;4.18;3.10;;;;;;;;;;10755474;26;20032;-71
2024/04/14 22:35:36;;;;;;;5.90;4.00;;;;;;;;;;10761684;26;20001;-72
2024/04/14 22:40:30;;;;;;;4.82;3.42;;;;;;;;;;10755777;26;20024;-71
2024/04/14 22:45:25;;;;;;;8.20;3.40;;;;;;;;;;10763903;26;20012;-71
2024/04/14 22:50:19;;;;;;;11.32;4.25;;;;;;;;;;10765640;26;20406;-71
2024/04/14 22:55:13;;;;;;;6.53;3.72;;;;;;;;;;10761228;26;20004;-72
2024/04/14 23:00:07;;;;;;;5.28;3.67;;;;;;;;;;10757922;26;20432;-72
2024/04/14 23:05:02;;;;;;;5.82;3.30;;;;;;;;;;10756371;26;20019;-71
2024/04/14 23:09:55;;;;;;;6.93;3.85;;;;;;;;;;10760912;26;20019;-71
2024/04/14 23:14:50;;;;;;;4.75;3.00;;;;;;;;;;10771933;26;20004;-71
2024/04/14 23:19:44;;;;;;;5.60;3.08;;;;;;;;;;10762068;26;20005;-70
2024/04/14 23:24:39;;;;;;;4.97;3.00;;;;;;;;;;10764609;26;20347;-70
2024/04/14 23:29:35;;;;;;;8.18;5.22;;;;;;;;;;10770253;26;20077;-71
2024/04/14 23:34:29;;;;;;;7.93;3.38;;;;;;;;;;10768665;26;20086;-71
2024/04/14 23:39:24;;;;;;;8.80;3.83;;;;;;;;;;10768069;26;20004;-71
2024/04/14 23:44:18;;;;;;;5.20;3.00;;;;;;;;;;10762231;26;20027;-71
2024/04/14 23:49:12;;;;;;;4.20;3.25;;;;;;;;;;10766732;26;20019;-71
2024/04/14 23:54:07;;;;;;;6.93;3.88;;;;;;;;;;10764274;26;20012;-66
2024/04/14 23:59:01;;;;;;;8.60;3.15;;;;;;;;;;10778132;26;20000;-65
